sensor_id;sensor_type;location;lat;lon;timestamp;P1;durP1;ratioP1;P2;durP2;ratioP2
9124;SDS011;4597;48.730;9.114;2023-05-10T00:01:30;2.13;;;0.63;;
9124;SDS011;4597;48.730;9.114;2023-05-10T00:03:55;0.70;;;0.40;;
9124;SDS011;4597;48.730;9.114;2023-05-10T00:06:21;0.77;;;0.40;;
9124;SDS011;4597;48.730;9.114;2023-05-10T00:08:46;0.57;;;0.40;;
9124;SDS011;4597;48.730;9.114;2023-05-10T00:11:12;0.57;;;0.43;;
9124;SDS011;4597;48.730;9.114;2023-05-10T00:13:37;1.27;;;0.43;;
9124;SDS011;4597;48.730;9.114;2023-05-10T00:16:03;0.30;;;0.30;;
9124;SDS011;4597;48.730;9.114;2023-05-10T00:18:29;3.20;;;0.50;;
9124;SDS011;4597;48.730;9.114;2023-05-10T00:20:54;0.50;;;0.40;;
9124;SDS011;4597;48.730;9.114;2023-05-10T00:23:20;0.60;;;0.60;;
9124;SDS011;4597;48.730;9.114;2023-05-10T00:25:45;1.60;;;0.60;;
9124;SDS011;4597;48.730;9.114;2023-05-10T00:28:11;1.83;;;0.70;;
9124;SDS011;4597;48.730;9.114;2023-05-10T00:30:36;3.20;;;0.70;;
9124;SDS011;4597;48.730;9.114;2023-05-10T00:33:02;1.07;;;0.60;;
9124;SDS011;4597;48.730;9.114;2023-05-10T00:35:27;1.50;;;0.80;;
9124;SDS011;4597;48.730;9.114;2023-05-10T00:37:53;1.90;;;0.70;;
9124;SDS011;4597;48.730;9.114;2023-05-10T00:40:18;1.40;;;0.80;;
9124;SDS011;4597;48.730;9.114;2023-05-10T00:42:44;2.13;;;0.70;;
9124;SDS011;4597;48.730;9.114;2023-05-10T00:45:09;0.67;;;0.67;;
9124;SDS011;4597;48.730;9.114;2023-05-10T00:47:35;0.80;;;0.60;;
9124;SDS011;4597;48.730;9.114;2023-05-10T00:50:01;1.77;;;0.73;;
9124;SDS011;4597;48.730;9.114;2023-05-10T00:52:27;1.20;;;0.90;;
9124;SDS011;4597;48.730;9.114;2023-05-10T00:54:54;2.27;;;0.90;;
9124;SDS011;4597;48.730;9.114;2023-05-10T00:57:19;2.70;;;0.73;;
9124;SDS011;4597;48.730;9.114;2023-05-10T00:59:46;1.10;;;1.00;;
9124;SDS011;4597;48.730;9.114;2023-05-10T01:02:11;0.80;;;0.80;;
9124;SDS011;4597;48.730;9.114;2023-05-10T01:04:38;0.73;;;0.73;;
9124;SDS011;4597;48.730;9.114;2023-05-10T01:07:04;1.80;;;1.00;;
9124;SDS011;4597;48.730;9.114;2023-05-10T01:09:30;0.93;;;0.80;;
9124;SDS011;4597;48.730;9.114;2023-05-10T01:11:56;1.00;;;1.00;;
9124;SDS011;4597;48.730;9.114;2023-05-10T01:14:22;0.90;;;0.90;;
9124;SDS011;4597;48.730;9.114;2023-05-10T01:16:49;0.90;;;0.90;;
9124;SDS011;4597;48.730;9.114;2023-05-10T01:19:18;2.43;;;0.93;;
9124;SDS011;4597;48.730;9.114;2023-05-10T01:24:51;2.30;;;1.20;;
9124;SDS011;4597;48.730;9.114;2023-05-10T01:33:25;0.90;;;0.90;;
9124;SDS011;4597;48.730;9.114;2023-05-10T01:36:06;1.30;;;1.20;;
9124;SDS011;4597;48.730;9.114;2023-05-10T01:38:50;0.80;;;0.80;;
9124;SDS011;4597;48.730;9.114;2023-05-10T01:41:50;2.13;;;0.97;;
9124;SDS011;4597;48.730;9.114;2023-05-10T01:47:24;1.07;;;0.97;;
9124;SDS011;4597;48.730;9.114;2023-05-10T01:50:01;0.90;;;0.90;;
9124;SDS011;4597;48.730;9.114;2023-05-10T01:52:36;1.43;;;1.00;;
9124;SDS011;4597;48.730;9.114;2023-05-10T01:55:06;0.97;;;0.97;;
9124;SDS011;4597;48.730;9.114;2023-05-10T01:57:35;1.10;;;1.10;;
9124;SDS011;4597;48.730;9.114;2023-05-10T02:00:02;1.37;;;1.00;;
9124;SDS011;4597;48.730;9.114;2023-05-10T02:02:30;0.87;;;0.87;;
9124;SDS011;4597;48.730;9.114;2023-05-10T02:05:02;0.90;;;0.90;;
9124;SDS011;4597;48.730;9.114;2023-05-10T02:07:30;0.90;;;0.90;;
9124;SDS011;4597;48.730;9.114;2023-05-10T02:09:58;1.30;;;1.20;;
9124;SDS011;4597;48.730;9.114;2023-05-10T02:12:24;1.03;;;1.03;;
9124;SDS011;4597;48.730;9.114;2023-05-10T02:14:50;1.03;;;1.03;;
9124;SDS011;4597;48.730;9.114;2023-05-10T02:17:17;1.30;;;1.20;;
9124;SDS011;4597;48.730;9.114;2023-05-10T02:19:43;1.30;;;1.10;;
9124;SDS011;4597;48.730;9.114;2023-05-10T02:22:11;1.20;;;1.20;;
9124;SDS011;4597;48.730;9.114;2023-05-10T02:24:37;1.00;;;1.00;;
9124;SDS011;4597;48.730;9.114;2023-05-10T02:27:04;1.10;;;0.90;;
9124;SDS011;4597;48.730;9.114;2023-05-10T02:29:31;1.00;;;1.00;;
9124;SDS011;4597;48.730;9.114;2023-05-10T02:31:57;1.13;;;1.10;;
9124;SDS011;4597;48.730;9.114;2023-05-10T02:34:25;1.23;;;1.20;;
9124;SDS011;4597;48.730;9.114;2023-05-10T02:36:53;1.10;;;1.10;;
9124;SDS011;4597;48.730;9.114;2023-05-10T02:39:20;2.50;;;1.20;;
9124;SDS011;4597;48.730;9.114;2023-05-10T02:41:46;1.27;;;1.27;;
9124;SDS011;4597;48.730;9.114;2023-05-10T02:44:17;1.30;;;1.20;;
9124;SDS011;4597;48.730;9.114;2023-05-10T02:46:44;1.50;;;1.40;;
9124;SDS011;4597;48.730;9.114;2023-05-10T02:49:10;1.70;;;1.60;;
9124;SDS011;4597;48.730;9.114;2023-05-10T02:51:37;1.40;;;1.40;;
9124;SDS011;4597;48.730;9.114;2023-05-10T02:54:09;2.03;;;1.70;;
9124;SDS011;4597;48.730;9.114;2023-05-10T02:56:39;1.80;;;1.70;;
9124;SDS011;4597;48.730;9.114;2023-05-10T02:59:07;2.07;;;1.97;;
9124;SDS011;4597;48.730;9.114;2023-05-10T03:01:33;1.60;;;1.50;;
9124;SDS011;4597;48.730;9.114;2023-05-10T03:03:59;1.60;;;1.57;;
9124;SDS011;4597;48.730;9.114;2023-05-10T03:06:25;3.03;;;1.50;;
9124;SDS011;4597;48.730;9.114;2023-05-10T03:08:50;1.97;;;1.77;;
9124;SDS011;4597;48.730;9.114;2023-05-10T03:11:20;1.83;;;1.73;;
9124;SDS011;4597;48.730;9.114;2023-05-10T03:14:10;1.97;;;1.87;;
9124;SDS011;4597;48.730;9.114;2023-05-10T03:16:42;1.80;;;1.70;;
9124;SDS011;4597;48.730;9.114;2023-05-10T03:19:22;1.90;;;1.80;;
9124;SDS011;4597;48.730;9.114;2023-05-10T03:21:52;2.17;;;2.00;;
9124;SDS011;4597;48.730;9.114;2023-05-10T03:24:21;1.93;;;1.83;;
9124;SDS011;4597;48.730;9.114;2023-05-10T03:26:48;2.00;;;1.90;;
9124;SDS011;4597;48.730;9.114;2023-05-10T03:29:15;3.77;;;2.97;;
9124;SDS011;4597;48.730;9.114;2023-05-10T03:31:42;2.10;;;2.00;;
9124;SDS011;4597;48.730;9.114;2023-05-10T03:34:07;1.83;;;1.77;;
9124;SDS011;4597;48.730;9.114;2023-05-10T03:36:33;1.93;;;1.83;;
9124;SDS011;4597;48.730;9.114;2023-05-10T03:38:58;2.20;;;2.10;;
9124;SDS011;4597;48.730;9.114;2023-05-10T03:41:24;2.00;;;1.90;;
9124;SDS011;4597;48.730;9.114;2023-05-10T03:43:50;2.67;;;2.47;;
9124;SDS011;4597;48.730;9.114;2023-05-10T03:46:16;2.40;;;2.30;;
9124;SDS011;4597;48.730;9.114;2023-05-10T03:48:42;2.63;;;2.50;;
9124;SDS011;4597;48.730;9.114;2023-05-10T03:51:07;2.90;;;1.90;;
9124;SDS011;4597;48.730;9.114;2023-05-10T03:53:33;1.87;;;1.77;;
9124;SDS011;4597;48.730;9.114;2023-05-10T03:55:58;5.13;;;2.20;;
9124;SDS011;4597;48.730;9.114;2023-05-10T03:58:24;1.70;;;1.60;;
9124;SDS011;4597;48.730;9.114;2023-05-10T04:00:50;1.53;;;1.53;;
9124;SDS011;4597;48.730;9.114;2023-05-10T04:03:16;2.23;;;1.87;;
9124;SDS011;4597;48.730;9.114;2023-05-10T04:05:42;2.13;;;1.90;;
9124;SDS011;4597;48.730;9.114;2023-05-10T04:08:08;1.50;;;1.50;;
9124;SDS011;4597;48.730;9.114;2023-05-10T04:10:33;1.57;;;1.47;;
9124;SDS011;4597;48.730;9.114;2023-05-10T04:12:59;1.87;;;1.60;;
9124;SDS011;4597;48.730;9.114;2023-05-10T04:15:25;2.23;;;1.80;;
9124;SDS011;4597;48.730;9.114;2023-05-10T04:17:50;1.70;;;1.60;;
9124;SDS011;4597;48.730;9.114;2023-05-10T04:20:16;1.60;;;1.60;;
9124;SDS011;4597;48.730;9.114;2023-05-10T04:22:42;1.90;;;1.90;;
9124;SDS011;4597;48.730;9.114;2023-05-10T04:25:08;2.60;;;1.67;;
9124;SDS011;4597;48.730;9.114;2023-05-10T04:27:33;1.70;;;1.60;;
9124;SDS011;4597;48.730;9.114;2023-05-10T04:29:59;2.50;;;2.30;;
9124;SDS011;4597;48.730;9.114;2023-05-10T04:32:24;3.60;;;1.73;;
9124;SDS011;4597;48.730;9.114;2023-05-10T04:34:50;2.97;;;1.83;;
9124;SDS011;4597;48.730;9.114;2023-05-10T04:37:16;1.63;;;1.53;;
9124;SDS011;4597;48.730;9.114;2023-05-10T04:39:42;2.90;;;1.63;;
9124;SDS011;4597;48.730;9.114;2023-05-10T04:42:07;1.80;;;1.70;;
9124;SDS011;4597;48.730;9.114;2023-05-10T04:44:33;2.67;;;2.00;;
9124;SDS011;4597;48.730;9.114;2023-05-10T04:46:58;2.10;;;2.00;;
9124;SDS011;4597;48.730;9.114;2023-05-10T04:49:24;2.00;;;1.90;;
9124;SDS011;4597;48.730;9.114;2023-05-10T04:51:49;2.03;;;1.90;;
9124;SDS011;4597;48.730;9.114;2023-05-10T04:54:15;2.07;;;1.97;;
9124;SDS011;4597;48.730;9.114;2023-05-10T04:56:40;2.37;;;2.17;;
9124;SDS011;4597;48.730;9.114;2023-05-10T04:59:06;2.20;;;2.10;;
9124;SDS011;4597;48.730;9.114;2023-05-10T05:01:32;2.37;;;2.07;;
9124;SDS011;4597;48.730;9.114;2023-05-10T05:03:57;4.67;;;2.17;;
9124;SDS011;4597;48.730;9.114;2023-05-10T05:06:23;3.23;;;2.43;;
9124;SDS011;4597;48.730;9.114;2023-05-10T05:08:50;2.17;;;2.07;;
9124;SDS011;4597;48.730;9.114;2023-05-10T05:11:16;2.27;;;1.97;;
9124;SDS011;4597;48.730;9.114;2023-05-10T05:13:41;2.40;;;2.03;;
9124;SDS011;4597;48.730;9.114;2023-05-10T05:16:07;2.53;;;2.20;;
9124;SDS011;4597;48.730;9.114;2023-05-10T05:18:32;2.50;;;2.30;;
9124;SDS011;4597;48.730;9.114;2023-05-10T05:20:58;3.17;;;2.23;;
9124;SDS011;4597;48.730;9.114;2023-05-10T05:23:23;2.40;;;2.30;;
9124;SDS011;4597;48.730;9.114;2023-05-10T05:25:51;2.40;;;2.30;;
9124;SDS011;4597;48.730;9.114;2023-05-10T05:28:17;3.47;;;2.73;;
9124;SDS011;4597;48.730;9.114;2023-05-10T05:30:43;2.63;;;2.43;;
9124;SDS011;4597;48.730;9.114;2023-05-10T05:33:08;3.73;;;2.80;;
9124;SDS011;4597;48.730;9.114;2023-05-10T05:35:34;3.97;;;2.83;;
9124;SDS011;4597;48.730;9.114;2023-05-10T05:37:59;2.83;;;2.63;;
9124;SDS011;4597;48.730;9.114;2023-05-10T05:40:25;3.10;;;2.80;;
9124;SDS011;4597;48.730;9.114;2023-05-10T05:42:50;2.90;;;2.70;;
9124;SDS011;4597;48.730;9.114;2023-05-10T05:45:16;3.03;;;2.83;;
9124;SDS011;4597;48.730;9.114;2023-05-10T05:47:41;4.30;;;2.47;;
9124;SDS011;4597;48.730;9.114;2023-05-10T05:50:07;2.80;;;2.60;;
9124;SDS011;4597;48.730;9.114;2023-05-10T05:52:33;2.80;;;2.60;;
9124;SDS011;4597;48.730;9.114;2023-05-10T05:54:58;2.97;;;2.77;;
9124;SDS011;4597;48.730;9.114;2023-05-10T05:57:24;2.87;;;2.60;;
9124;SDS011;4597;48.730;9.114;2023-05-10T05:59:51;3.07;;;2.80;;
9124;SDS011;4597;48.730;9.114;2023-05-10T06:02:17;3.00;;;2.57;;
9124;SDS011;4597;48.730;9.114;2023-05-10T06:04:42;3.30;;;2.20;;
9124;SDS011;4597;48.730;9.114;2023-05-10T06:07:08;2.50;;;2.30;;
9124;SDS011;4597;48.730;9.114;2023-05-10T06:09:33;2.20;;;2.10;;
9124;SDS011;4597;48.730;9.114;2023-05-10T06:11:59;3.20;;;2.60;;
9124;SDS011;4597;48.730;9.114;2023-05-10T06:14:25;2.43;;;2.33;;
9124;SDS011;4597;48.730;9.114;2023-05-10T06:16:50;2.40;;;2.20;;
9124;SDS011;4597;48.730;9.114;2023-05-10T06:19:16;2.50;;;2.40;;
9124;SDS011;4597;48.730;9.114;2023-05-10T06:21:41;2.67;;;2.27;;
9124;SDS011;4597;48.730;9.114;2023-05-10T06:24:07;2.20;;;2.00;;
9124;SDS011;4597;48.730;9.114;2023-05-10T06:26:32;2.10;;;2.00;;
9124;SDS011;4597;48.730;9.114;2023-05-10T06:28:58;2.47;;;1.90;;
9124;SDS011;4597;48.730;9.114;2023-05-10T06:31:24;2.77;;;1.90;;
9124;SDS011;4597;48.730;9.114;2023-05-10T06:33:50;1.83;;;1.70;;
9124;SDS011;4597;48.730;9.114;2023-05-10T06:36:15;1.87;;;1.77;;
9124;SDS011;4597;48.730;9.114;2023-05-10T06:38:41;1.60;;;1.50;;
9124;SDS011;4597;48.730;9.114;2023-05-10T06:41:06;1.80;;;1.60;;
9124;SDS011;4597;48.730;9.114;2023-05-10T06:43:32;1.70;;;1.60;;
9124;SDS011;4597;48.730;9.114;2023-05-10T06:45:57;2.40;;;1.70;;
9124;SDS011;4597;48.730;9.114;2023-05-10T06:48:23;2.77;;;1.53;;
9124;SDS011;4597;48.730;9.114;2023-05-10T06:50:49;1.90;;;1.30;;
9124;SDS011;4597;48.730;9.114;2023-05-10T06:53:14;1.70;;;1.60;;
9124;SDS011;4597;48.730;9.114;2023-05-10T06:55:40;1.73;;;1.50;;
9124;SDS011;4597;48.730;9.114;2023-05-10T06:58:06;3.70;;;1.80;;
9124;SDS011;4597;48.730;9.114;2023-05-10T07:00:31;1.50;;;1.40;;
9124;SDS011;4597;48.730;9.114;2023-05-10T07:02:57;2.27;;;1.43;;
9124;SDS011;4597;48.730;9.114;2023-05-10T07:05:23;1.93;;;1.60;;
9124;SDS011;4597;48.730;9.114;2023-05-10T07:07:48;3.37;;;1.87;;
9124;SDS011;4597;48.730;9.114;2023-05-10T07:10:14;1.53;;;1.43;;
9124;SDS011;4597;48.730;9.114;2023-05-10T07:12:40;1.30;;;1.20;;
9124;SDS011;4597;48.730;9.114;2023-05-10T07:15:05;2.07;;;1.30;;
9124;SDS011;4597;48.730;9.114;2023-05-10T07:17:31;1.50;;;1.40;;
9124;SDS011;4597;48.730;9.114;2023-05-10T07:19:58;1.67;;;1.33;;
9124;SDS011;4597;48.730;9.114;2023-05-10T07:22:24;1.30;;;1.20;;
9124;SDS011;4597;48.730;9.114;2023-05-10T07:24:49;1.47;;;1.30;;
9124;SDS011;4597;48.730;9.114;2023-05-10T07:27:15;1.17;;;1.07;;
9124;SDS011;4597;48.730;9.114;2023-05-10T07:29:40;1.50;;;1.10;;
9124;SDS011;4597;48.730;9.114;2023-05-10T07:32:06;1.23;;;1.10;;
9124;SDS011;4597;48.730;9.114;2023-05-10T07:34:31;2.27;;;0.97;;
9124;SDS011;4597;48.730;9.114;2023-05-10T07:37:00;1.23;;;1.00;;
9124;SDS011;4597;48.730;9.114;2023-05-10T07:39:26;2.00;;;0.83;;
9124;SDS011;4597;48.730;9.114;2023-05-10T07:41:52;2.20;;;1.20;;
9124;SDS011;4597;48.730;9.114;2023-05-10T07:44:18;1.00;;;1.00;;
9124;SDS011;4597;48.730;9.114;2023-05-10T07:46:45;1.30;;;0.90;;
9124;SDS011;4597;48.730;9.114;2023-05-10T07:49:11;1.90;;;0.93;;
9124;SDS011;4597;48.730;9.114;2023-05-10T07:51:36;0.90;;;0.90;;
9124;SDS011;4597;48.730;9.114;2023-05-10T07:54:02;1.37;;;0.90;;
9124;SDS011;4597;48.730;9.114;2023-05-10T07:56:28;2.40;;;1.10;;
9124;SDS011;4597;48.730;9.114;2023-05-10T07:58:56;1.50;;;1.03;;
9124;SDS011;4597;48.730;9.114;2023-05-10T08:01:23;1.87;;;1.10;;
9124;SDS011;4597;48.730;9.114;2023-05-10T08:03:49;0.90;;;0.90;;
9124;SDS011;4597;48.730;9.114;2023-05-10T08:06:16;1.47;;;0.87;;
9124;SDS011;4597;48.730;9.114;2023-05-10T08:08:43;0.97;;;0.97;;
9124;SDS011;4597;48.730;9.114;2023-05-10T08:11:10;1.80;;;1.00;;
9124;SDS011;4597;48.730;9.114;2023-05-10T08:13:36;2.00;;;0.90;;
9124;SDS011;4597;48.730;9.114;2023-05-10T08:16:01;0.80;;;0.80;;
9124;SDS011;4597;48.730;9.114;2023-05-10T08:18:27;1.57;;;1.03;;
9124;SDS011;4597;48.730;9.114;2023-05-10T08:20:52;2.83;;;1.00;;
9124;SDS011;4597;48.730;9.114;2023-05-10T08:23:18;1.27;;;0.97;;
9124;SDS011;4597;48.730;9.114;2023-05-10T08:25:43;1.47;;;1.20;;
9124;SDS011;4597;48.730;9.114;2023-05-10T08:28:09;0.63;;;0.63;;
9124;SDS011;4597;48.730;9.114;2023-05-10T08:30:34;0.80;;;0.80;;
9124;SDS011;4597;48.730;9.114;2023-05-10T08:33:00;1.13;;;0.77;;
9124;SDS011;4597;48.730;9.114;2023-05-10T08:35:25;2.83;;;1.07;;
9124;SDS011;4597;48.730;9.114;2023-05-10T08:37:51;0.83;;;0.83;;
9124;SDS011;4597;48.730;9.114;2023-05-10T08:40:16;0.80;;;0.80;;
9124;SDS011;4597;48.730;9.114;2023-05-10T08:42:46;0.73;;;0.73;;
9124;SDS011;4597;48.730;9.114;2023-05-10T08:45:46;0.70;;;0.70;;
9124;SDS011;4597;48.730;9.114;2023-05-10T08:48:13;0.77;;;0.77;;
9124;SDS011;4597;48.730;9.114;2023-05-10T08:50:40;0.67;;;0.67;;
9124;SDS011;4597;48.730;9.114;2023-05-10T08:53:10;0.70;;;0.70;;
9124;SDS011;4597;48.730;9.114;2023-05-10T08:55:37;2.20;;;0.70;;
9124;SDS011;4597;48.730;9.114;2023-05-10T08:58:05;3.07;;;0.90;;
9124;SDS011;4597;48.730;9.114;2023-05-10T09:00:31;1.27;;;0.80;;
9124;SDS011;4597;48.730;9.114;2023-05-10T09:03:00;2.43;;;0.90;;
9124;SDS011;4597;48.730;9.114;2023-05-10T09:05:26;1.67;;;0.90;;
9124;SDS011;4597;48.730;9.114;2023-05-10T09:07:52;1.23;;;0.90;;
9124;SDS011;4597;48.730;9.114;2023-05-10T09:10:18;1.00;;;1.00;;
9124;SDS011;4597;48.730;9.114;2023-05-10T09:12:44;0.90;;;0.90;;
9124;SDS011;4597;48.730;9.114;2023-05-10T09:15:10;1.20;;;0.90;;
9124;SDS011;4597;48.730;9.114;2023-05-10T09:17:37;0.73;;;0.73;;
9124;SDS011;4597;48.730;9.114;2023-05-10T09:20:04;1.00;;;0.73;;
9124;SDS011;4597;48.730;9.114;2023-05-10T09:22:30;0.80;;;0.80;;
9124;SDS011;4597;48.730;9.114;2023-05-10T09:25:09;1.27;;;0.80;;
9124;SDS011;4597;48.730;9.114;2023-05-10T09:27:36;1.77;;;0.90;;
9124;SDS011;4597;48.730;9.114;2023-05-10T09:30:03;0.67;;;0.67;;
9124;SDS011;4597;48.730;9.114;2023-05-10T09:35:12;2.63;;;0.80;;
9124;SDS011;4597;48.730;9.114;2023-05-10T09:37:40;0.70;;;0.70;;
9124;SDS011;4597;48.730;9.114;2023-05-10T09:40:07;1.53;;;0.60;;
9124;SDS011;4597;48.730;9.114;2023-05-10T09:42:36;1.03;;;0.80;;
9124;SDS011;4597;48.730;9.114;2023-05-10T09:45:02;0.87;;;0.77;;
9124;SDS011;4597;48.730;9.114;2023-05-10T09:47:28;0.60;;;0.60;;
9124;SDS011;4597;48.730;9.114;2023-05-10T09:49:57;0.70;;;0.70;;
9124;SDS011;4597;48.730;9.114;2023-05-10T09:52:27;2.20;;;0.70;;
9124;SDS011;4597;48.730;9.114;2023-05-10T09:54:53;1.10;;;0.73;;
9124;SDS011;4597;48.730;9.114;2023-05-10T09:57:20;0.70;;;0.70;;
9124;SDS011;4597;48.730;9.114;2023-05-10T09:59:47;0.60;;;0.60;;
9124;SDS011;4597;48.730;9.114;2023-05-10T10:02:13;1.07;;;0.87;;
9124;SDS011;4597;48.730;9.114;2023-05-10T10:04:41;0.83;;;0.83;;
9124;SDS011;4597;48.730;9.114;2023-05-10T10:07:07;1.03;;;0.80;;
9124;SDS011;4597;48.730;9.114;2023-05-10T10:09:33;0.70;;;0.70;;
9124;SDS011;4597;48.730;9.114;2023-05-10T10:12:00;0.70;;;0.70;;
9124;SDS011;4597;48.730;9.114;2023-05-10T10:14:29;0.63;;;0.63;;
9124;SDS011;4597;48.730;9.114;2023-05-10T10:16:55;1.87;;;0.90;;
9124;SDS011;4597;48.730;9.114;2023-05-10T10:19:21;0.90;;;0.90;;
9124;SDS011;4597;48.730;9.114;2023-05-10T10:21:49;0.80;;;0.80;;
9124;SDS011;4597;48.730;9.114;2023-05-10T10:24:16;0.70;;;0.70;;
9124;SDS011;4597;48.730;9.114;2023-05-10T10:26:41;1.57;;;1.00;;
9124;SDS011;4597;48.730;9.114;2023-05-10T10:31:57;0.80;;;0.80;;
9124;SDS011;4597;48.730;9.114;2023-05-10T10:34:38;0.77;;;0.77;;
9124;SDS011;4597;48.730;9.114;2023-05-10T10:37:05;0.80;;;0.80;;
9124;SDS011;4597;48.730;9.114;2023-05-10T10:39:31;2.20;;;0.90;;
9124;SDS011;4597;48.730;9.114;2023-05-10T10:41:57;0.70;;;0.70;;
9124;SDS011;4597;48.730;9.114;2023-05-10T10:50:21;0.93;;;0.87;;
9124;SDS011;4597;48.730;9.114;2023-05-10T10:55:08;1.80;;;1.10;;
9124;SDS011;4597;48.730;9.114;2023-05-10T11:00:20;3.73;;;0.90;;
9124;SDS011;4597;48.730;9.114;2023-05-10T11:02:48;1.00;;;0.90;;
9124;SDS011;4597;48.730;9.114;2023-05-10T11:05:23;2.20;;;1.23;;
9124;SDS011;4597;48.730;9.114;2023-05-10T11:07:53;1.60;;;1.00;;
9124;SDS011;4597;48.730;9.114;2023-05-10T11:10:23;1.23;;;1.17;;
9124;SDS011;4597;48.730;9.114;2023-05-10T11:13:05;1.10;;;1.10;;
9124;SDS011;4597;48.730;9.114;2023-05-10T11:15:33;1.43;;;0.90;;
9124;SDS011;4597;48.730;9.114;2023-05-10T11:18:16;2.13;;;1.13;;
9124;SDS011;4597;48.730;9.114;2023-05-10T11:20:52;1.40;;;1.00;;
9124;SDS011;4597;48.730;9.114;2023-05-10T11:23:21;1.30;;;1.20;;
9124;SDS011;4597;48.730;9.114;2023-05-10T11:25:47;1.23;;;1.20;;
9124;SDS011;4597;48.730;9.114;2023-05-10T11:28:14;2.93;;;1.50;;
9124;SDS011;4597;48.730;9.114;2023-05-10T11:30:41;1.97;;;1.27;;
9124;SDS011;4597;48.730;9.114;2023-05-10T11:33:09;2.73;;;1.50;;
9124;SDS011;4597;48.730;9.114;2023-05-10T11:35:40;3.37;;;1.37;;
9124;SDS011;4597;48.730;9.114;2023-05-10T11:38:06;1.63;;;1.53;;
9124;SDS011;4597;48.730;9.114;2023-05-10T11:40:35;1.40;;;1.40;;
9124;SDS011;4597;48.730;9.114;2023-05-10T11:43:01;5.10;;;1.70;;
9124;SDS011;4597;48.730;9.114;2023-05-10T11:45:28;1.70;;;1.60;;
9124;SDS011;4597;48.730;9.114;2023-05-10T11:47:57;1.40;;;1.30;;
9124;SDS011;4597;48.730;9.114;2023-05-10T11:50:23;2.53;;;1.23;;
9124;SDS011;4597;48.730;9.114;2023-05-10T11:52:55;3.47;;;1.80;;
9124;SDS011;4597;48.730;9.114;2023-05-10T11:55:22;2.40;;;1.70;;
9124;SDS011;4597;48.730;9.114;2023-05-10T11:57:51;1.57;;;1.47;;
9124;SDS011;4597;48.730;9.114;2023-05-10T12:00:17;1.47;;;1.37;;
9124;SDS011;4597;48.730;9.114;2023-05-10T12:02:43;2.97;;;1.60;;
9124;SDS011;4597;48.730;9.114;2023-05-10T12:05:09;1.30;;;1.30;;
9124;SDS011;4597;48.730;9.114;2023-05-10T12:07:35;2.30;;;1.07;;
9124;SDS011;4597;48.730;9.114;2023-05-10T12:12:39;1.00;;;1.00;;
9124;SDS011;4597;48.730;9.114;2023-05-10T12:15:19;2.30;;;1.30;;
9124;SDS011;4597;48.730;9.114;2023-05-10T12:17:49;1.20;;;1.10;;
9124;SDS011;4597;48.730;9.114;2023-05-10T12:20:21;2.40;;;1.30;;
9124;SDS011;4597;48.730;9.114;2023-05-10T12:22:52;1.07;;;0.70;;
9124;SDS011;4597;48.730;9.114;2023-05-10T12:25:23;1.10;;;0.90;;
9124;SDS011;4597;48.730;9.114;2023-05-10T12:27:53;2.77;;;1.03;;
9124;SDS011;4597;48.730;9.114;2023-05-10T12:30:23;1.30;;;1.20;;
9124;SDS011;4597;48.730;9.114;2023-05-10T12:32:53;2.13;;;1.10;;
9124;SDS011;4597;48.730;9.114;2023-05-10T12:35:23;2.10;;;1.00;;
9124;SDS011;4597;48.730;9.114;2023-05-10T12:37:52;2.77;;;0.97;;
9124;SDS011;4597;48.730;9.114;2023-05-10T12:40:18;1.23;;;1.03;;
9124;SDS011;4597;48.730;9.114;2023-05-10T12:42:43;2.27;;;1.17;;
9124;SDS011;4597;48.730;9.114;2023-05-10T12:45:10;1.17;;;1.00;;
9124;SDS011;4597;48.730;9.114;2023-05-10T12:47:36;0.90;;;0.90;;
9124;SDS011;4597;48.730;9.114;2023-05-10T12:50:03;0.87;;;0.80;;
9124;SDS011;4597;48.730;9.114;2023-05-10T12:52:28;0.83;;;0.83;;
9124;SDS011;4597;48.730;9.114;2023-05-10T12:54:54;1.33;;;0.80;;
9124;SDS011;4597;48.730;9.114;2023-05-10T12:57:21;1.80;;;1.00;;
9124;SDS011;4597;48.730;9.114;2023-05-10T12:59:46;1.83;;;0.90;;
9124;SDS011;4597;48.730;9.114;2023-05-10T13:02:12;2.13;;;1.40;;
9124;SDS011;4597;48.730;9.114;2023-05-10T13:04:39;1.67;;;1.00;;
9124;SDS011;4597;48.730;9.114;2023-05-10T13:07:08;1.10;;;1.00;;
9124;SDS011;4597;48.730;9.114;2023-05-10T13:09:33;1.00;;;1.00;;
9124;SDS011;4597;48.730;9.114;2023-05-10T13:11:59;0.83;;;0.73;;
9124;SDS011;4597;48.730;9.114;2023-05-10T13:14:25;0.87;;;0.87;;
9124;SDS011;4597;48.730;9.114;2023-05-10T13:16:51;0.97;;;0.90;;
9124;SDS011;4597;48.730;9.114;2023-05-10T13:19:17;1.43;;;1.00;;
9124;SDS011;4597;48.730;9.114;2023-05-10T13:21:43;1.33;;;1.00;;
9124;SDS011;4597;48.730;9.114;2023-05-10T13:24:09;3.73;;;1.20;;
9124;SDS011;4597;48.730;9.114;2023-05-10T13:26:35;3.33;;;1.10;;
9124;SDS011;4597;48.730;9.114;2023-05-10T13:29:02;2.47;;;1.27;;
9124;SDS011;4597;48.730;9.114;2023-05-10T13:31:28;1.23;;;1.00;;
9124;SDS011;4597;48.730;9.114;2023-05-10T13:33:53;3.03;;;1.20;;
9124;SDS011;4597;48.730;9.114;2023-05-10T13:36:19;1.40;;;1.03;;
9124;SDS011;4597;48.730;9.114;2023-05-10T13:38:44;1.97;;;1.20;;
9124;SDS011;4597;48.730;9.114;2023-05-10T13:41:10;2.37;;;1.20;;
9124;SDS011;4597;48.730;9.114;2023-05-10T13:43:36;2.70;;;0.97;;
9124;SDS011;4597;48.730;9.114;2023-05-10T13:46:01;1.83;;;0.90;;
9124;SDS011;4597;48.730;9.114;2023-05-10T13:48:27;2.90;;;0.97;;
9124;SDS011;4597;48.730;9.114;2023-05-10T13:50:53;1.57;;;1.00;;
9124;SDS011;4597;48.730;9.114;2023-05-10T13:53:19;1.93;;;1.00;;
9124;SDS011;4597;48.730;9.114;2023-05-10T13:55:44;0.90;;;0.90;;
9124;SDS011;4597;48.730;9.114;2023-05-10T13:58:10;2.67;;;1.27;;
9124;SDS011;4597;48.730;9.114;2023-05-10T14:00:35;1.40;;;1.03;;
9124;SDS011;4597;48.730;9.114;2023-05-10T14:03:01;1.10;;;1.00;;
9124;SDS011;4597;48.730;9.114;2023-05-10T14:05:27;1.07;;;0.90;;
9124;SDS011;4597;48.730;9.114;2023-05-10T14:07:52;2.47;;;0.97;;
9124;SDS011;4597;48.730;9.114;2023-05-10T14:10:18;1.13;;;1.03;;
9124;SDS011;4597;48.730;9.114;2023-05-10T14:12:44;0.80;;;0.80;;
9124;SDS011;4597;48.730;9.114;2023-05-10T14:15:09;0.87;;;0.87;;
9124;SDS011;4597;48.730;9.114;2023-05-10T14:17:36;1.07;;;0.90;;
9124;SDS011;4597;48.730;9.114;2023-05-10T14:20:02;1.23;;;0.90;;
9124;SDS011;4597;48.730;9.114;2023-05-10T14:22:28;2.73;;;0.80;;
9124;SDS011;4597;48.730;9.114;2023-05-10T14:24:54;1.27;;;1.00;;
9124;SDS011;4597;48.730;9.114;2023-05-10T14:27:20;0.97;;;0.97;;
9124;SDS011;4597;48.730;9.114;2023-05-10T14:29:46;0.93;;;0.93;;
9124;SDS011;4597;48.730;9.114;2023-05-10T14:32:12;1.00;;;0.90;;
9124;SDS011;4597;48.730;9.114;2023-05-10T14:34:38;1.33;;;0.93;;
9124;SDS011;4597;48.730;9.114;2023-05-10T14:37:03;1.37;;;1.00;;
9124;SDS011;4597;48.730;9.114;2023-05-10T14:39:29;2.23;;;0.97;;
9124;SDS011;4597;48.730;9.114;2023-05-10T14:41:55;0.90;;;0.90;;
9124;SDS011;4597;48.730;9.114;2023-05-10T14:44:21;2.07;;;1.00;;
9124;SDS011;4597;48.730;9.114;2023-05-10T14:46:46;1.63;;;1.10;;
9124;SDS011;4597;48.730;9.114;2023-05-10T14:49:13;0.90;;;0.90;;
9124;SDS011;4597;48.730;9.114;2023-05-10T14:51:38;0.80;;;0.80;;
9124;SDS011;4597;48.730;9.114;2023-05-10T14:54:04;1.00;;;1.00;;
9124;SDS011;4597;48.730;9.114;2023-05-10T14:56:29;3.43;;;1.00;;
9124;SDS011;4597;48.730;9.114;2023-05-10T14:58:55;2.07;;;1.10;;
9124;SDS011;4597;48.730;9.114;2023-05-10T15:01:21;0.80;;;0.80;;
9124;SDS011;4597;48.730;9.114;2023-05-10T15:03:46;2.00;;;0.93;;
9124;SDS011;4597;48.730;9.114;2023-05-10T15:06:13;1.20;;;1.07;;
9124;SDS011;4597;48.730;9.114;2023-05-10T15:08:39;0.97;;;0.97;;
9124;SDS011;4597;48.730;9.114;2023-05-10T15:11:05;1.40;;;1.10;;
9124;SDS011;4597;48.730;9.114;2023-05-10T15:13:30;3.33;;;1.37;;
9124;SDS011;4597;48.730;9.114;2023-05-10T15:15:56;1.17;;;1.00;;
9124;SDS011;4597;48.730;9.114;2023-05-10T15:18:21;0.97;;;0.90;;
9124;SDS011;4597;48.730;9.114;2023-05-10T15:20:47;1.00;;;1.00;;
9124;SDS011;4597;48.730;9.114;2023-05-10T15:23:12;1.57;;;1.20;;
9124;SDS011;4597;48.730;9.114;2023-05-10T15:25:38;1.20;;;1.20;;
9124;SDS011;4597;48.730;9.114;2023-05-10T15:28:04;1.10;;;1.00;;
9124;SDS011;4597;48.730;9.114;2023-05-10T15:30:30;1.23;;;1.13;;
9124;SDS011;4597;48.730;9.114;2023-05-10T15:32:55;1.50;;;1.40;;
9124;SDS011;4597;48.730;9.114;2023-05-10T15:35:21;2.27;;;1.50;;
9124;SDS011;4597;48.730;9.114;2023-05-10T15:37:47;1.60;;;1.10;;
9124;SDS011;4597;48.730;9.114;2023-05-10T15:40:14;3.27;;;1.43;;
9124;SDS011;4597;48.730;9.114;2023-05-10T15:42:39;0.87;;;0.87;;
9124;SDS011;4597;48.730;9.114;2023-05-10T15:45:05;0.83;;;0.83;;